createdAt,value
2018-05-25T00:00:30.986Z,2.77
2018-05-25T00:02:58.402Z,2.40
2018-05-25T00:05:25.842Z,2.80
2018-05-25T00:07:53.284Z,2.53
2018-05-25T00:10:20.672Z,2.67
2018-05-25T00:12:48.105Z,2.70
2018-05-25T00:15:15.526Z,2.60
2018-05-25T00:17:42.926Z,2.70
2018-05-25T00:20:10.317Z,2.73
2018-05-25T00:22:37.814Z,2.53
2018-05-25T00:25:05.271Z,2.60
2018-05-25T00:27:32.701Z,2.80
2018-05-25T00:30:00.141Z,3.33
2018-05-25T00:32:27.541Z,3.23
2018-05-25T00:34:54.937Z,2.57
2018-05-25T00:37:22.352Z,2.60
2018-05-25T00:39:49.805Z,2.87
2018-05-25T00:42:17.201Z,2.47
2018-05-25T00:44:44.607Z,2.70
2018-05-25T00:47:11.988Z,3.10
2018-05-25T00:49:39.396Z,2.90
2018-05-25T00:52:06.782Z,3.43
2018-05-25T00:54:34.196Z,2.67
2018-05-25T00:57:01.637Z,2.97
2018-05-25T00:59:29.061Z,2.80
2018-05-25T01:01:56.534Z,2.80
2018-05-25T01:04:23.939Z,2.80
2018-05-25T01:06:51.345Z,2.67
2018-05-25T01:09:18.802Z,2.60
2018-05-25T01:11:46.259Z,2.83
2018-05-25T01:14:13.726Z,3.30
2018-05-25T01:16:41.190Z,3.73
2018-05-25T01:19:08.613Z,3.07
2018-05-25T01:21:36.061Z,3.30
2018-05-25T01:24:03.441Z,3.53
2018-05-25T01:26:30.858Z,3.40
2018-05-25T01:28:58.263Z,2.60
2018-05-25T01:31:25.661Z,2.93
2018-05-25T01:33:53.060Z,3.40
2018-05-25T01:36:20.449Z,2.57
2018-05-25T01:38:47.860Z,2.50
2018-05-25T01:41:15.261Z,3.47
2018-05-25T01:43:42.676Z,3.73
2018-05-25T01:46:10.056Z,3.70
2018-05-25T01:48:37.449Z,3.47
2018-05-25T01:51:04.857Z,2.77
2018-05-25T01:53:32.270Z,3.03
2018-05-25T01:55:59.728Z,3.33
2018-05-25T01:58:27.178Z,2.70
2018-05-25T02:00:54.585Z,3.40
2018-05-25T02:03:21.996Z,3.50
2018-05-25T02:05:49.453Z,3.13
2018-05-25T02:08:16.905Z,3.17
2018-05-25T02:10:44.304Z,2.80
2018-05-25T02:13:11.693Z,3.80
2018-05-25T02:15:39.169Z,2.83
2018-05-25T02:18:06.625Z,3.13
2018-05-25T02:20:34.026Z,3.50
2018-05-25T02:23:01.441Z,3.00
2018-05-25T02:25:28.914Z,3.20
2018-05-25T02:27:56.353Z,3.67
2018-05-25T02:30:23.758Z,3.42
2018-05-25T02:32:51.145Z,3.33
2018-05-25T02:35:18.563Z,4.23
2018-05-25T02:37:45.977Z,4.83
2018-05-25T02:40:13.378Z,3.33
2018-05-25T02:42:40.790Z,3.80
2018-05-25T02:45:08.185Z,3.33
2018-05-25T02:47:35.581Z,4.20
2018-05-25T02:50:03.059Z,3.47
2018-05-25T02:52:30.561Z,3.13
2018-05-25T02:54:57.966Z,3.33
2018-05-25T02:57:25.363Z,3.07
2018-05-25T02:59:52.756Z,3.37
2018-05-25T03:02:20.251Z,3.80
2018-05-25T03:04:47.659Z,3.77
2018-05-25T03:07:15.040Z,3.50
2018-05-25T03:09:42.506Z,3.20
2018-05-25T03:12:09.961Z,3.80
2018-05-25T03:14:37.421Z,3.67
2018-05-25T03:17:04.926Z,2.77
2018-05-25T03:19:32.276Z,3.50
2018-05-25T03:21:59.668Z,4.07
2018-05-25T03:24:27.066Z,3.50
2018-05-25T03:26:54.504Z,3.60
2018-05-25T03:29:21.958Z,3.50
2018-05-25T03:31:49.365Z,3.43
2018-05-25T03:34:16.799Z,3.07
2018-05-25T03:36:44.238Z,3.63
2018-05-25T03:39:11.647Z,3.90
2018-05-25T03:41:39.036Z,3.40
2018-05-25T03:44:06.424Z,3.43
2018-05-25T03:46:33.846Z,3.80
2018-05-25T03:49:01.238Z,3.57
2018-05-25T03:51:28.657Z,4.23
2018-05-25T03:53:56.138Z,3.80
2018-05-25T03:56:23.548Z,3.50
2018-05-25T03:59:02.798Z,3.50
2018-05-25T04:01:42.157Z,3.67
2018-05-25T04:04:09.524Z,4.13
2018-05-25T04:06:36.966Z,3.70
2018-05-25T04:09:04.405Z,4.47
2018-05-25T04:11:31.797Z,3.67
2018-05-25T04:13:59.199Z,3.23
2018-05-25T04:16:26.609Z,3.57
2018-05-25T04:18:54.007Z,3.10
2018-05-25T04:21:21.412Z,3.40
2018-05-25T04:23:48.797Z,3.67
2018-05-25T04:26:16.193Z,3.73
2018-05-25T04:28:43.602Z,3.83
2018-05-25T04:31:11.015Z,3.47
2018-05-25T04:33:38.402Z,3.40
2018-05-25T04:36:05.797Z,3.40
2018-05-25T04:38:33.189Z,4.37
2018-05-25T04:41:00.634Z,4.10
2018-05-25T04:43:28.090Z,4.07
2018-05-25T04:45:55.485Z,4.03
2018-05-25T04:48:22.877Z,4.10
2018-05-25T04:50:50.281Z,3.90
2018-05-25T04:53:17.673Z,3.13
2018-05-25T04:55:45.091Z,3.50
2018-05-25T04:58:12.474Z,4.33
2018-05-25T05:00:39.893Z,4.10
2018-05-25T05:03:07.302Z,4.33
2018-05-25T05:05:34.708Z,3.50
2018-05-25T05:08:02.101Z,3.53
2018-05-25T05:10:29.497Z,3.77
2018-05-25T05:12:56.894Z,5.07
2018-05-25T05:15:24.325Z,4.20
2018-05-25T05:17:51.725Z,3.47
2018-05-25T05:20:19.137Z,3.40
2018-05-25T05:22:46.541Z,3.57
2018-05-25T05:25:14.049Z,3.30
2018-05-25T05:27:41.621Z,5.23
2018-05-25T05:30:09.065Z,3.00
2018-05-25T05:32:36.517Z,3.87
2018-05-25T05:35:03.980Z,3.63
2018-05-25T05:37:31.447Z,3.17
2018-05-25T05:39:58.848Z,2.90
2018-05-25T05:42:26.363Z,3.53
2018-05-25T05:44:53.781Z,2.87
2018-05-25T05:47:21.192Z,2.83
2018-05-25T05:49:48.591Z,2.90
2018-05-25T05:52:16.082Z,3.00
2018-05-25T05:54:43.502Z,3.27
2018-05-25T05:57:10.916Z,3.27
2018-05-25T05:59:38.312Z,3.63
2018-05-25T06:02:05.825Z,3.57
2018-05-25T06:04:33.265Z,3.77
2018-05-25T06:07:00.722Z,3.40
2018-05-25T06:09:28.192Z,4.33
2018-05-25T06:11:55.852Z,3.10
2018-05-25T06:14:23.301Z,3.27
2018-05-25T06:16:50.704Z,3.27
2018-05-25T06:19:18.087Z,3.17
2018-05-25T06:21:45.561Z,3.40
2018-05-25T06:24:13.023Z,3.27
2018-05-25T06:26:40.559Z,3.20
2018-05-25T06:29:07.965Z,3.43
2018-05-25T06:31:35.437Z,3.30
2018-05-25T06:34:02.898Z,3.93
2018-05-25T06:36:30.315Z,3.17
2018-05-25T06:38:57.733Z,3.30
2018-05-25T06:41:25.137Z,3.40
2018-05-25T06:43:52.516Z,2.83
2018-05-25T06:46:19.978Z,2.90
2018-05-25T06:48:47.429Z,3.17
2018-05-25T06:51:14.849Z,2.57
2018-05-25T06:53:42.241Z,3.40
2018-05-25T06:56:09.645Z,2.70
2018-05-25T06:58:37.031Z,2.90
2018-05-25T07:01:04.554Z,3.77
2018-05-25T07:03:32.032Z,2.87
2018-05-25T07:05:59.584Z,3.23
2018-05-25T07:08:26.997Z,2.90
2018-05-25T07:10:54.497Z,3.20
2018-05-25T07:13:21.890Z,2.80
2018-05-25T07:15:49.303Z,3.30
2018-05-25T07:18:16.698Z,2.70
2018-05-25T07:20:44.112Z,3.80
2018-05-25T07:23:11.573Z,3.40
2018-05-25T07:25:39.037Z,3.13
2018-05-25T07:28:07.228Z,3.50
2018-05-25T07:30:34.640Z,2.97
2018-05-25T07:33:02.035Z,2.80
2018-05-25T07:35:29.638Z,2.90
2018-05-25T07:37:57.045Z,2.90
2018-05-25T07:40:24.462Z,2.80
2018-05-25T07:42:51.863Z,2.90
2018-05-25T07:45:19.268Z,2.87
2018-05-25T07:47:46.666Z,2.90
2018-05-25T07:50:14.076Z,3.33
2018-05-25T07:52:41.482Z,2.90
2018-05-25T07:55:08.888Z,3.00
2018-05-25T07:57:36.350Z,2.83
2018-05-25T08:00:04.109Z,3.22
2018-05-25T08:02:31.505Z,2.67
2018-05-25T08:04:59.005Z,3.17
2018-05-25T08:07:26.449Z,2.90
2018-05-25T08:09:53.870Z,2.50
2018-05-25T08:12:21.406Z,2.80
2018-05-25T08:14:48.821Z,2.90
2018-05-25T08:17:16.277Z,2.93
2018-05-25T08:19:43.684Z,3.00
2018-05-25T08:22:11.201Z,3.23
2018-05-25T08:24:38.601Z,2.70
2018-05-25T08:27:05.993Z,2.63
2018-05-25T08:29:33.381Z,2.33
2018-05-25T08:32:00.783Z,2.70
2018-05-25T08:34:28.170Z,2.80
2018-05-25T08:36:55.565Z,2.90
2018-05-25T08:39:22.981Z,2.50
2018-05-25T08:41:50.404Z,2.60
2018-05-25T08:44:17.793Z,2.60
2018-05-25T08:46:45.198Z,2.80
2018-05-25T08:49:12.580Z,2.73
2018-05-25T08:51:40.098Z,2.93
2018-05-25T08:54:07.524Z,2.60
2018-05-25T08:56:34.981Z,2.47
2018-05-25T08:59:02.437Z,2.70
2018-05-25T09:01:30.059Z,3.13
2018-05-25T09:03:57.484Z,3.20
2018-05-25T09:06:24.928Z,3.07
2018-05-25T09:08:52.339Z,2.93
2018-05-25T09:11:19.735Z,2.70
2018-05-25T09:13:47.187Z,2.77
2018-05-25T09:16:14.589Z,2.90
2018-05-25T09:18:42.002Z,3.00
2018-05-25T09:21:09.388Z,3.10
2018-05-25T09:23:36.809Z,2.83
2018-05-25T09:26:04.196Z,3.00
2018-05-25T09:28:31.589Z,3.20
2018-05-25T09:30:59.039Z,2.73
2018-05-25T09:33:26.384Z,3.27
2018-05-25T09:35:53.797Z,3.00
2018-05-25T09:38:21.248Z,3.07
2018-05-25T09:40:48.642Z,2.77
2018-05-25T09:43:16.040Z,2.63
2018-05-25T09:45:43.440Z,2.97
2018-05-25T09:48:10.833Z,3.43
2018-05-25T09:50:38.232Z,3.00
2018-05-25T09:53:05.686Z,3.03
2018-05-25T09:55:33.168Z,3.00
2018-05-25T09:58:00.601Z,3.10
2018-05-25T10:00:28.021Z,2.30
2018-05-25T10:02:55.430Z,2.90
2018-05-25T10:05:22.870Z,2.57
2018-05-25T10:07:50.291Z,2.87
2018-05-25T10:10:17.705Z,2.60
2018-05-25T10:12:45.117Z,2.50
2018-05-25T10:15:12.509Z,2.70
2018-05-25T10:17:39.996Z,2.80
2018-05-25T10:20:07.408Z,2.60
2018-05-25T10:22:34.796Z,2.07
2018-05-25T10:25:02.185Z,2.20
2018-05-25T10:27:29.631Z,2.87
2018-05-25T10:29:57.020Z,2.60
2018-05-25T10:32:24.536Z,2.97
2018-05-25T10:34:51.921Z,2.47
2018-05-25T10:37:19.323Z,2.70
2018-05-25T10:39:46.725Z,2.57
2018-05-25T10:42:14.153Z,2.07
2018-05-25T10:44:41.537Z,2.60
2018-05-25T10:47:08.969Z,2.73
2018-05-25T10:49:36.441Z,2.97
2018-05-25T10:52:03.829Z,2.90
2018-05-25T10:54:31.237Z,2.57
2018-05-25T10:56:58.654Z,2.17
2018-05-25T10:59:26.153Z,2.23
2018-05-25T11:01:53.565Z,2.90
2018-05-25T11:04:20.961Z,3.07
2018-05-25T11:06:48.363Z,2.47
2018-05-25T11:09:15.755Z,2.60
2018-05-25T11:11:43.233Z,2.50
2018-05-25T11:14:10.631Z,3.00
2018-05-25T11:16:38.058Z,2.90
2018-05-25T11:19:05.502Z,3.20
2018-05-25T11:21:32.965Z,3.10
2018-05-25T11:24:00.435Z,2.10
2018-05-25T11:26:27.904Z,2.37
2018-05-25T11:28:55.336Z,2.20
2018-05-25T11:31:22.810Z,2.43
2018-05-25T11:33:50.202Z,2.43
2018-05-25T11:36:17.593Z,2.67
2018-05-25T11:38:45.068Z,3.03
2018-05-25T11:41:12.492Z,2.73
2018-05-25T11:43:39.982Z,2.47
2018-05-25T11:46:07.378Z,2.53
2018-05-25T11:48:34.795Z,2.33
2018-05-25T11:51:02.196Z,2.47
2018-05-25T11:53:29.609Z,3.10
2018-05-25T11:55:57.985Z,2.90
2018-05-25T11:58:25.406Z,2.30
2018-05-25T12:00:52.840Z,2.90
2018-05-25T12:03:20.273Z,3.37
2018-05-25T12:05:47.689Z,2.70
2018-05-25T12:08:15.174Z,2.50
2018-05-25T12:10:42.569Z,2.67
2018-05-25T12:13:09.996Z,2.63
2018-05-25T12:15:37.402Z,3.00
2018-05-25T12:18:04.796Z,3.30
2018-05-25T12:20:32.251Z,2.90
2018-05-25T12:22:59.716Z,2.43
2018-05-25T12:25:27.125Z,2.30
2018-05-25T12:27:54.590Z,2.57
2018-05-25T12:30:21.985Z,2.30
2018-05-25T12:32:49.383Z,2.53
2018-05-25T12:35:16.794Z,2.77
2018-05-25T12:37:44.210Z,2.50
2018-05-25T12:40:11.673Z,2.90
2018-05-25T12:42:39.071Z,2.47
2018-05-25T12:45:14.335Z,2.53
2018-05-25T12:47:41.741Z,3.10
2018-05-25T12:50:09.129Z,2.50
2018-05-25T12:52:36.529Z,2.23
2018-05-25T12:55:03.931Z,2.53
2018-05-25T12:57:31.349Z,2.53
2018-05-25T12:59:58.752Z,2.77
2018-05-25T13:02:26.157Z,2.43
2018-05-25T13:04:53.625Z,2.40
2018-05-25T13:07:21.021Z,2.50
2018-05-25T13:09:48.474Z,3.07
2018-05-25T13:12:15.877Z,2.70
2018-05-25T13:14:43.349Z,2.40
2018-05-25T13:17:10.843Z,3.20
2018-05-25T13:19:38.293Z,2.53
2018-05-25T13:22:05.706Z,2.20
2018-05-25T13:24:33.143Z,2.70
2018-05-25T13:27:00.557Z,2.87
2018-05-25T13:29:28.018Z,2.53
2018-05-25T13:31:55.429Z,2.50
2018-05-25T13:34:22.933Z,2.40
2018-05-25T13:36:50.317Z,2.67
2018-05-25T13:39:17.729Z,2.70
2018-05-25T13:41:45.212Z,2.80
2018-05-25T13:44:12.913Z,2.33
2018-05-25T13:46:40.404Z,2.17
2018-05-25T13:49:07.814Z,3.03
2018-05-25T13:51:35.232Z,2.63
2018-05-25T13:54:02.657Z,2.73
2018-05-25T13:56:30.070Z,2.80
2018-05-25T13:58:57.500Z,3.00
2018-05-25T14:01:24.985Z,2.50
2018-05-25T14:03:52.469Z,2.00
2018-05-25T14:06:19.879Z,2.30
2018-05-25T14:08:47.288Z,2.50
2018-05-25T14:11:14.750Z,2.40
2018-05-25T14:13:42.225Z,2.53
2018-05-25T14:16:09.725Z,2.53
2018-05-25T14:18:37.128Z,2.67
2018-05-25T14:21:04.528Z,2.40
2018-05-25T14:23:31.933Z,2.57
2018-05-25T14:25:59.556Z,3.00
2018-05-25T14:28:26.975Z,2.57
2018-05-25T14:30:54.426Z,2.87
2018-05-25T14:33:21.830Z,3.00
2018-05-25T14:35:49.291Z,2.70
2018-05-25T14:38:16.690Z,2.33
2018-05-25T14:40:44.339Z,2.70
2018-05-25T14:43:11.738Z,3.07
2018-05-25T14:45:39.159Z,2.70
2018-05-25T14:48:06.686Z,2.57
2018-05-25T14:50:34.218Z,3.03
2018-05-25T14:53:01.725Z,2.70
2018-05-25T14:55:29.169Z,3.10
2018-05-25T14:57:56.573Z,3.63
2018-05-25T15:00:23.957Z,2.57
2018-05-25T15:02:51.463Z,2.60
2018-05-25T15:05:18.922Z,2.80
2018-05-25T15:07:46.317Z,2.37
2018-05-25T15:10:13.786Z,2.90
2018-05-25T15:12:41.184Z,2.70
2018-05-25T15:15:08.581Z,2.53
2018-05-25T15:17:36.045Z,2.60
2018-05-25T15:20:03.454Z,2.50
2018-05-25T15:22:30.845Z,2.30
2018-05-25T15:24:58.246Z,3.07
2018-05-25T15:27:25.637Z,2.17
2018-05-25T15:29:53.034Z,2.80
2018-05-25T15:32:20.421Z,2.93
2018-05-25T15:34:47.846Z,2.37
2018-05-25T15:37:15.265Z,2.53
2018-05-25T15:39:42.669Z,3.20
2018-05-25T15:42:10.062Z,2.60
2018-05-25T15:44:37.456Z,2.70
2018-05-25T15:47:05.054Z,2.67
2018-05-25T15:49:32.490Z,2.80
2018-05-25T15:51:59.941Z,2.80
2018-05-25T15:54:27.365Z,3.00
2018-05-25T15:56:54.777Z,2.37
2018-05-25T15:59:22.176Z,2.70
2018-05-25T16:01:49.670Z,2.90
2018-05-25T16:04:17.126Z,2.10
2018-05-25T16:06:44.532Z,3.77
2018-05-25T16:09:11.937Z,3.43
2018-05-25T16:11:39.316Z,3.40
2018-05-25T16:14:06.722Z,2.90
2018-05-25T16:16:34.114Z,3.10
2018-05-25T16:19:01.505Z,5.80
2018-05-25T16:21:28.901Z,3.07
2018-05-25T16:23:56.377Z,2.97
2018-05-25T16:26:23.779Z,2.97
2018-05-25T16:28:51.310Z,2.70
2018-05-25T16:31:18.674Z,2.80
2018-05-25T16:33:46.194Z,2.57
2018-05-25T16:36:13.588Z,2.40
2018-05-25T16:38:41.097Z,2.40
2018-05-25T16:41:08.486Z,2.40
2018-05-25T16:43:35.912Z,2.20
2018-05-25T16:46:03.325Z,2.60
2018-05-25T16:48:30.727Z,2.27
2018-05-25T16:50:58.180Z,2.90
2018-05-25T16:53:25.632Z,2.30
2018-05-25T16:55:53.121Z,2.67
2018-05-25T16:58:20.485Z,2.70
2018-05-25T17:00:47.901Z,2.83
2018-05-25T17:03:15.293Z,2.60
2018-05-25T17:05:42.744Z,2.30
2018-05-25T17:08:10.173Z,2.87
2018-05-25T17:10:37.637Z,2.97
2018-05-25T17:13:05.103Z,2.67
2018-05-25T17:15:32.504Z,3.07
2018-05-25T17:17:59.898Z,2.40
2018-05-25T17:20:27.365Z,2.87
2018-05-25T17:22:54.772Z,2.97
2018-05-25T17:25:22.175Z,2.87
2018-05-25T17:27:49.562Z,3.00
2018-05-25T17:30:16.972Z,2.80
2018-05-25T17:32:44.358Z,3.10
2018-05-25T17:35:11.798Z,2.70
2018-05-25T17:37:39.197Z,2.93
2018-05-25T17:40:06.659Z,2.83
2018-05-25T17:42:34.048Z,2.80
2018-05-25T17:45:01.479Z,2.40
2018-05-25T17:47:28.953Z,2.10
2018-05-25T17:49:56.358Z,2.80
2018-05-25T17:52:23.752Z,2.50
2018-05-25T17:54:51.146Z,2.90
2018-05-25T17:57:18.540Z,2.40
2018-05-25T17:59:45.947Z,3.20
2018-05-25T18:02:13.368Z,2.70
2018-05-25T18:04:40.827Z,2.20
2018-05-25T18:07:08.209Z,2.10
2018-05-25T18:09:35.610Z,2.20
2018-05-25T18:12:03.089Z,2.13
2018-05-25T18:14:30.507Z,2.33
2018-05-25T18:16:57.900Z,2.60
2018-05-25T18:19:25.293Z,2.30
2018-05-25T18:21:52.721Z,2.37
2018-05-25T18:24:20.113Z,2.97
2018-05-25T18:26:47.505Z,2.47
2018-05-25T18:29:14.985Z,3.00
2018-05-25T18:31:42.389Z,2.60
2018-05-25T18:34:09.809Z,2.03
2018-05-25T18:36:37.202Z,2.60
2018-05-25T18:39:04.605Z,2.37
2018-05-25T18:41:31.996Z,3.80
2018-05-25T18:43:59.434Z,2.93
2018-05-25T18:46:26.833Z,2.47
2018-05-25T18:48:54.213Z,2.63
2018-05-25T18:51:21.634Z,2.73
2018-05-25T18:54:00.957Z,2.80
2018-05-25T18:56:28.361Z,2.73
2018-05-25T18:58:55.870Z,2.40
2018-05-25T19:01:23.467Z,3.30
2018-05-25T19:03:51.185Z,2.37
2018-05-25T19:06:18.729Z,2.27
2018-05-25T19:08:46.176Z,2.20
2018-05-25T19:11:13.759Z,2.43
2018-05-25T19:13:41.420Z,3.10
2018-05-25T19:16:09.008Z,2.67
2018-05-25T19:18:36.558Z,2.67
2018-05-25T19:21:04.099Z,2.30
2018-05-25T19:23:31.653Z,2.10
2018-05-25T19:26:00.002Z,1.83
2018-05-25T19:28:27.480Z,2.13
2018-05-25T19:30:54.889Z,2.20
2018-05-25T19:33:22.297Z,2.10
2018-05-25T19:35:49.701Z,2.20
2018-05-25T19:38:17.133Z,2.20
2018-05-25T19:40:44.545Z,1.63
2018-05-25T19:43:11.957Z,2.53
2018-05-25T19:45:39.344Z,2.27
2018-05-25T19:48:06.838Z,2.43
2018-05-25T19:50:34.254Z,1.93
2018-05-25T19:53:01.671Z,2.47
2018-05-25T19:55:29.101Z,2.17
2018-05-25T19:57:56.521Z,2.57
2018-05-25T20:00:23.947Z,2.93
2018-05-25T20:02:51.343Z,2.43
2018-05-25T20:05:18.741Z,3.03
2018-05-25T20:07:46.130Z,2.10
2018-05-25T20:10:13.614Z,2.60
2018-05-25T20:12:41.058Z,2.70
2018-05-25T20:15:08.550Z,3.10
2018-05-25T20:17:35.970Z,2.90
2018-05-25T20:20:03.437Z,2.20
2018-05-25T20:22:30.827Z,2.27
2018-05-25T20:24:58.240Z,3.10
2018-05-25T20:27:25.743Z,2.77
2018-05-25T20:29:53.241Z,2.80
2018-05-25T20:32:20.659Z,3.53
2018-05-25T20:34:48.137Z,2.40
2018-05-25T20:37:15.533Z,2.33
2018-05-25T20:39:42.962Z,2.10
2018-05-25T20:42:10.363Z,2.90
2018-05-25T20:44:37.886Z,2.17
2018-05-25T20:47:05.301Z,2.27
2018-05-25T20:49:32.697Z,2.10
2018-05-25T20:52:00.117Z,6.07
2018-05-25T20:54:27.523Z,2.80
2018-05-25T20:56:54.934Z,3.43
2018-05-25T20:59:22.350Z,3.20
2018-05-25T21:01:49.778Z,2.10
2018-05-25T21:04:17.164Z,2.13
2018-05-25T21:06:44.573Z,1.93
2018-05-25T21:09:12.000Z,2.97
2018-05-25T21:11:39.387Z,3.30
2018-05-25T21:14:06.853Z,2.07
2018-05-25T21:16:34.244Z,2.50
2018-05-25T21:19:01.738Z,2.70
2018-05-25T21:21:29.170Z,2.23
2018-05-25T21:23:56.570Z,1.97
2018-05-25T21:26:23.986Z,2.07
2018-05-25T21:28:51.409Z,2.60
2018-05-25T21:31:18.922Z,2.57
2018-05-25T21:33:46.305Z,2.20
2018-05-25T21:36:13.729Z,2.30
2018-05-25T21:38:41.284Z,2.10
2018-05-25T21:41:08.689Z,2.17
2018-05-25T21:43:36.097Z,2.17
2018-05-25T21:46:03.577Z,2.33
2018-05-25T21:48:30.972Z,2.17
2018-05-25T21:50:58.428Z,2.47
2018-05-25T21:53:25.813Z,2.03
2018-05-25T21:55:53.226Z,2.40
2018-05-25T21:58:20.652Z,2.33
2018-05-25T22:00:48.049Z,2.33
2018-05-25T22:03:15.438Z,2.23
2018-05-25T22:05:42.932Z,2.23
2018-05-25T22:08:10.379Z,2.13
2018-05-25T22:10:37.839Z,2.80
2018-05-25T22:13:05.277Z,2.30
2018-05-25T22:15:32.762Z,1.83
2018-05-25T22:18:00.221Z,2.10
2018-05-25T22:20:27.692Z,1.93
2018-05-25T22:22:55.125Z,1.73
2018-05-25T22:25:22.514Z,2.40
2018-05-25T22:27:49.925Z,2.10
2018-05-25T22:30:17.343Z,2.33
2018-05-25T22:32:44.833Z,1.90
2018-05-25T22:35:12.321Z,2.00
2018-05-25T22:37:39.735Z,2.63
2018-05-25T22:40:07.122Z,2.10
2018-05-25T22:42:46.341Z,2.23
2018-05-25T22:45:25.583Z,1.80
2018-05-25T22:48:04.753Z,1.90
2018-05-25T22:50:43.918Z,1.70
2018-05-25T22:53:16.385Z,2.00
2018-05-25T22:55:43.802Z,2.00
2018-05-25T22:58:11.223Z,2.20
2018-05-25T23:00:38.681Z,1.80
2018-05-25T23:03:06.105Z,2.20
2018-05-25T23:05:33.623Z,2.10
2018-05-25T23:08:01.018Z,2.00
2018-05-25T23:10:28.427Z,1.83
2018-05-25T23:12:55.811Z,2.10
2018-05-25T23:15:23.535Z,1.87
2018-05-25T23:17:50.931Z,2.40
2018-05-25T23:20:18.355Z,2.43
2018-05-25T23:22:45.755Z,2.60
2018-05-25T23:25:13.173Z,2.03
2018-05-25T23:27:40.621Z,1.70
2018-05-25T23:30:08.090Z,1.93
2018-05-25T23:32:35.496Z,2.23
2018-05-25T23:35:02.973Z,2.33
2018-05-25T23:37:30.389Z,2.90
2018-05-25T23:39:57.770Z,2.20
2018-05-25T23:42:25.183Z,2.10
2018-05-25T23:44:53.727Z,2.07
2018-05-25T23:47:21.134Z,2.23
2018-05-25T23:49:48.566Z,1.90
2018-05-25T23:52:15.983Z,2.60
2018-05-25T23:54:43.464Z,1.73
2018-05-25T23:57:10.858Z,2.13
2018-05-25T23:59:38.261Z,1.90
